sensor_id;sensor_type;location;lat;lon;timestamp;P1;durP1;ratioP1;P2;durP2;ratioP2
8857;SDS011;4465;50.904;4.696;2023-05-07T00:00:16;15.70;;;6.18;;
8857;SDS011;4465;50.904;4.696;2023-05-07T00:02:47;8.85;;;5.32;;
8857;SDS011;4465;50.904;4.696;2023-05-07T00:05:13;11.07;;;5.47;;
8857;SDS011;4465;50.904;4.696;2023-05-07T00:07:42;11.05;;;6.10;;
8857;SDS011;4465;50.904;4.696;2023-05-07T00:10:08;13.18;;;6.50;;
8857;SDS011;4465;50.904;4.696;2023-05-07T00:15:02;11.88;;;5.63;;
8857;SDS011;4465;50.904;4.696;2023-05-07T00:17:32;13.65;;;5.95;;
8857;SDS011;4465;50.904;4.696;2023-05-07T00:22:26;11.20;;;6.05;;
8857;SDS011;4465;50.904;4.696;2023-05-07T00:24:52;12.93;;;6.22;;
8857;SDS011;4465;50.904;4.696;2023-05-07T00:27:21;10.57;;;5.70;;
8857;SDS011;4465;50.904;4.696;2023-05-07T00:29:48;10.97;;;5.73;;
8857;SDS011;4465;50.904;4.696;2023-05-07T00:32:13;12.57;;;6.28;;
8857;SDS011;4465;50.904;4.696;2023-05-07T00:34:42;11.38;;;6.25;;
8857;SDS011;4465;50.904;4.696;2023-05-07T00:37:08;13.45;;;5.70;;
8857;SDS011;4465;50.904;4.696;2023-05-07T00:39:34;11.18;;;6.20;;
8857;SDS011;4465;50.904;4.696;2023-05-07T00:42:06;17.48;;;6.38;;
8857;SDS011;4465;50.904;4.696;2023-05-07T00:44:32;12.52;;;6.25;;
8857;SDS011;4465;50.904;4.696;2023-05-07T00:47:01;11.95;;;5.95;;
8857;SDS011;4465;50.904;4.696;2023-05-07T00:49:43;9.85;;;5.60;;
8857;SDS011;4465;50.904;4.696;2023-05-07T00:52:14;13.32;;;6.38;;
8857;SDS011;4465;50.904;4.696;2023-05-07T00:54:41;9.13;;;5.72;;
8857;SDS011;4465;50.904;4.696;2023-05-07T00:57:07;14.20;;;6.88;;
8857;SDS011;4465;50.904;4.696;2023-05-07T00:59:35;11.80;;;6.10;;
8857;SDS011;4465;50.904;4.696;2023-05-07T01:02:04;13.82;;;6.50;;
8857;SDS011;4465;50.904;4.696;2023-05-07T01:04:30;12.40;;;6.80;;
8857;SDS011;4465;50.904;4.696;2023-05-07T01:06:56;12.52;;;6.70;;
8857;SDS011;4465;50.904;4.696;2023-05-07T01:09:25;12.93;;;6.60;;
8857;SDS011;4465;50.904;4.696;2023-05-07T01:11:51;13.23;;;6.72;;
8857;SDS011;4465;50.904;4.696;2023-05-07T01:14:21;10.65;;;6.30;;
8857;SDS011;4465;50.904;4.696;2023-05-07T01:16:47;10.73;;;6.20;;
8857;SDS011;4465;50.904;4.696;2023-05-07T01:19:19;12.32;;;6.30;;
8857;SDS011;4465;50.904;4.696;2023-05-07T01:21:47;17.08;;;6.70;;
8857;SDS011;4465;50.904;4.696;2023-05-07T01:24:16;14.18;;;6.60;;
8857;SDS011;4465;50.904;4.696;2023-05-07T01:26:43;12.80;;;7.00;;
8857;SDS011;4465;50.904;4.696;2023-05-07T01:29:12;12.23;;;7.00;;
8857;SDS011;4465;50.904;4.696;2023-05-07T01:31:41;12.00;;;6.40;;
8857;SDS011;4465;50.904;4.696;2023-05-07T01:34:10;12.95;;;7.40;;
8857;SDS011;4465;50.904;4.696;2023-05-07T01:36:40;12.32;;;7.35;;
8857;SDS011;4465;50.904;4.696;2023-05-07T01:39:08;13.70;;;7.78;;
8857;SDS011;4465;50.904;4.696;2023-05-07T01:44:03;10.95;;;6.53;;
8857;SDS011;4465;50.904;4.696;2023-05-07T01:46:32;13.48;;;7.38;;
8857;SDS011;4465;50.904;4.696;2023-05-07T01:48:58;14.73;;;6.50;;
8857;SDS011;4465;50.904;4.696;2023-05-07T01:51:24;16.10;;;7.20;;
8857;SDS011;4465;50.904;4.696;2023-05-07T01:53:51;13.30;;;7.13;;
8857;SDS011;4465;50.904;4.696;2023-05-07T01:56:18;11.50;;;6.95;;
8857;SDS011;4465;50.904;4.696;2023-05-07T01:58:45;15.00;;;7.10;;
8857;SDS011;4465;50.904;4.696;2023-05-07T02:01:12;17.35;;;7.80;;
8857;SDS011;4465;50.904;4.696;2023-05-07T02:03:40;12.45;;;7.40;;
8857;SDS011;4465;50.904;4.696;2023-05-07T02:06:06;14.63;;;7.80;;
8857;SDS011;4465;50.904;4.696;2023-05-07T02:08:34;13.00;;;7.30;;
8857;SDS011;4465;50.904;4.696;2023-05-07T02:11:00;12.88;;;7.70;;
8857;SDS011;4465;50.904;4.696;2023-05-07T02:13:32;14.20;;;7.57;;
8857;SDS011;4465;50.904;4.696;2023-05-07T02:15:59;16.55;;;7.60;;
8857;SDS011;4465;50.904;4.696;2023-05-07T02:18:25;14.32;;;6.80;;
8857;SDS011;4465;50.904;4.696;2023-05-07T02:20:53;12.95;;;7.50;;
8857;SDS011;4465;50.904;4.696;2023-05-07T02:23:19;13.98;;;7.20;;
8857;SDS011;4465;50.904;4.696;2023-05-07T02:25:45;14.60;;;7.95;;
8857;SDS011;4465;50.904;4.696;2023-05-07T02:28:11;12.50;;;7.95;;
8857;SDS011;4465;50.904;4.696;2023-05-07T02:30:37;14.48;;;7.63;;
8857;SDS011;4465;50.904;4.696;2023-05-07T02:33:03;18.92;;;7.20;;
8857;SDS011;4465;50.904;4.696;2023-05-07T02:35:32;22.73;;;7.97;;
8857;SDS011;4465;50.904;4.696;2023-05-07T02:37:58;21.95;;;7.82;;
8857;SDS011;4465;50.904;4.696;2023-05-07T02:40:26;18.23;;;8.75;;
8857;SDS011;4465;50.904;4.696;2023-05-07T02:42:57;14.63;;;8.27;;
8857;SDS011;4465;50.904;4.696;2023-05-07T02:45:23;46.38;;;10.05;;
8857;SDS011;4465;50.904;4.696;2023-05-07T02:47:49;39.83;;;11.13;;
8857;SDS011;4465;50.904;4.696;2023-05-07T02:50:15;34.55;;;9.75;;
8857;SDS011;4465;50.904;4.696;2023-05-07T02:52:41;25.67;;;8.82;;
8857;SDS011;4465;50.904;4.696;2023-05-07T02:55:07;18.50;;;9.10;;
8857;SDS011;4465;50.904;4.696;2023-05-07T02:57:33;15.82;;;8.35;;
8857;SDS011;4465;50.904;4.696;2023-05-07T02:59:59;17.40;;;8.38;;
8857;SDS011;4465;50.904;4.696;2023-05-07T03:02:25;14.90;;;7.85;;
8857;SDS011;4465;50.904;4.696;2023-05-07T03:04:51;14.45;;;7.05;;
8857;SDS011;4465;50.904;4.696;2023-05-07T03:07:17;18.85;;;7.43;;
8857;SDS011;4465;50.904;4.696;2023-05-07T03:09:42;13.52;;;8.23;;
8857;SDS011;4465;50.904;4.696;2023-05-07T03:12:08;12.40;;;7.47;;
8857;SDS011;4465;50.904;4.696;2023-05-07T03:14:36;16.35;;;8.18;;
8857;SDS011;4465;50.904;4.696;2023-05-07T03:17:07;11.93;;;7.85;;
8857;SDS011;4465;50.904;4.696;2023-05-07T03:19:33;12.57;;;8.25;;
8857;SDS011;4465;50.904;4.696;2023-05-07T03:21:58;13.77;;;8.30;;
8857;SDS011;4465;50.904;4.696;2023-05-07T03:24:24;14.07;;;8.07;;
8857;SDS011;4465;50.904;4.696;2023-05-07T03:26:50;14.88;;;8.05;;
8857;SDS011;4465;50.904;4.696;2023-05-07T03:29:16;12.70;;;8.35;;
8857;SDS011;4465;50.904;4.696;2023-05-07T03:31:42;17.77;;;8.80;;
8857;SDS011;4465;50.904;4.696;2023-05-07T03:34:10;13.68;;;7.97;;
8857;SDS011;4465;50.904;4.696;2023-05-07T03:36:36;18.13;;;8.15;;
8857;SDS011;4465;50.904;4.696;2023-05-07T03:39:04;14.02;;;8.77;;
8857;SDS011;4465;50.904;4.696;2023-05-07T03:41:30;14.23;;;8.80;;
8857;SDS011;4465;50.904;4.696;2023-05-07T03:43:56;17.95;;;8.02;;
8857;SDS011;4465;50.904;4.696;2023-05-07T03:46:21;15.65;;;9.25;;
8857;SDS011;4465;50.904;4.696;2023-05-07T03:48:49;18.75;;;9.48;;
8857;SDS011;4465;50.904;4.696;2023-05-07T03:51:15;15.15;;;9.02;;
8857;SDS011;4465;50.904;4.696;2023-05-07T03:53:41;14.70;;;8.95;;
8857;SDS011;4465;50.904;4.696;2023-05-07T03:56:09;17.30;;;10.27;;
8857;SDS011;4465;50.904;4.696;2023-05-07T03:58:35;17.05;;;9.05;;
8857;SDS011;4465;50.904;4.696;2023-05-07T04:01:01;17.95;;;9.73;;
8857;SDS011;4465;50.904;4.696;2023-05-07T04:03:27;17.70;;;9.90;;
8857;SDS011;4465;50.904;4.696;2023-05-07T04:05:57;19.05;;;9.20;;
8857;SDS011;4465;50.904;4.696;2023-05-07T04:08:23;19.17;;;9.85;;
8857;SDS011;4465;50.904;4.696;2023-05-07T04:10:54;15.50;;;9.88;;
8857;SDS011;4465;50.904;4.696;2023-05-07T04:13:20;15.90;;;8.73;;
8857;SDS011;4465;50.904;4.696;2023-05-07T04:15:46;16.15;;;9.57;;
8857;SDS011;4465;50.904;4.696;2023-05-07T04:20:40;14.55;;;9.90;;
8857;SDS011;4465;50.904;4.696;2023-05-07T04:23:07;18.33;;;9.85;;
8857;SDS011;4465;50.904;4.696;2023-05-07T04:25:33;24.83;;;10.40;;
8857;SDS011;4465;50.904;4.696;2023-05-07T04:28:01;21.63;;;10.55;;
8857;SDS011;4465;50.904;4.696;2023-05-07T04:30:27;17.85;;;10.77;;
8857;SDS011;4465;50.904;4.696;2023-05-07T04:32:58;17.75;;;10.30;;
8857;SDS011;4465;50.904;4.696;2023-05-07T04:35:23;17.67;;;9.43;;
8857;SDS011;4465;50.904;4.696;2023-05-07T04:37:49;18.08;;;10.25;;
8857;SDS011;4465;50.904;4.696;2023-05-07T04:40:15;14.82;;;10.25;;
8857;SDS011;4465;50.904;4.696;2023-05-07T04:42:41;25.60;;;11.23;;
8857;SDS011;4465;50.904;4.696;2023-05-07T04:45:07;30.17;;;12.15;;
8857;SDS011;4465;50.904;4.696;2023-05-07T04:47:37;22.92;;;10.77;;
8857;SDS011;4465;50.904;4.696;2023-05-07T04:50:04;20.73;;;10.82;;
8857;SDS011;4465;50.904;4.696;2023-05-07T04:54:58;20.20;;;10.98;;
8857;SDS011;4465;50.904;4.696;2023-05-07T04:57:25;25.60;;;11.63;;
8857;SDS011;4465;50.904;4.696;2023-05-07T04:59:52;21.17;;;10.63;;
8857;SDS011;4465;50.904;4.696;2023-05-07T05:02:20;17.02;;;10.35;;
8857;SDS011;4465;50.904;4.696;2023-05-07T05:04:46;18.90;;;10.63;;
8857;SDS011;4465;50.904;4.696;2023-05-07T05:07:12;28.23;;;12.57;;
8857;SDS011;4465;50.904;4.696;2023-05-07T05:09:38;27.80;;;13.20;;
8857;SDS011;4465;50.904;4.696;2023-05-07T05:12:04;25.98;;;13.73;;
8857;SDS011;4465;50.904;4.696;2023-05-07T05:14:32;30.95;;;14.80;;
8857;SDS011;4465;50.904;4.696;2023-05-07T05:16:58;41.22;;;15.23;;
8857;SDS011;4465;50.904;4.696;2023-05-07T05:19:24;51.05;;;15.02;;
8857;SDS011;4465;50.904;4.696;2023-05-07T05:21:50;49.78;;;15.13;;
8857;SDS011;4465;50.904;4.696;2023-05-07T05:24:16;46.97;;;16.42;;
8857;SDS011;4465;50.904;4.696;2023-05-07T05:26:42;30.15;;;13.32;;
8857;SDS011;4465;50.904;4.696;2023-05-07T05:29:07;20.83;;;12.57;;
8857;SDS011;4465;50.904;4.696;2023-05-07T05:31:33;23.25;;;13.05;;
8857;SDS011;4465;50.904;4.696;2023-05-07T05:33:59;23.55;;;12.20;;
8857;SDS011;4465;50.904;4.696;2023-05-07T05:36:25;18.38;;;11.93;;
8857;SDS011;4465;50.904;4.696;2023-05-07T05:38:51;19.80;;;12.00;;
8857;SDS011;4465;50.904;4.696;2023-05-07T05:41:17;19.80;;;12.43;;
8857;SDS011;4465;50.904;4.696;2023-05-07T05:43:48;22.98;;;13.80;;
8857;SDS011;4465;50.904;4.696;2023-05-07T05:46:14;21.98;;;12.00;;
8857;SDS011;4465;50.904;4.696;2023-05-07T05:48:40;19.63;;;12.48;;
8857;SDS011;4465;50.904;4.696;2023-05-07T05:51:06;20.88;;;12.25;;
8857;SDS011;4465;50.904;4.696;2023-05-07T05:53:32;23.95;;;12.85;;
8857;SDS011;4465;50.904;4.696;2023-05-07T05:55:57;20.02;;;12.30;;
8857;SDS011;4465;50.904;4.696;2023-05-07T05:58:26;19.92;;;12.68;;
8857;SDS011;4465;50.904;4.696;2023-05-07T06:00:52;21.60;;;12.50;;
8857;SDS011;4465;50.904;4.696;2023-05-07T06:03:18;22.13;;;12.70;;
8857;SDS011;4465;50.904;4.696;2023-05-07T06:05:44;20.67;;;11.73;;
8857;SDS011;4465;50.904;4.696;2023-05-07T06:08:10;25.17;;;12.13;;
8857;SDS011;4465;50.904;4.696;2023-05-07T06:10:38;26.30;;;11.85;;
8857;SDS011;4465;50.904;4.696;2023-05-07T06:13:04;20.23;;;11.23;;
8857;SDS011;4465;50.904;4.696;2023-05-07T06:15:30;23.35;;;11.43;;
8857;SDS011;4465;50.904;4.696;2023-05-07T06:17:56;20.80;;;11.25;;
8857;SDS011;4465;50.904;4.696;2023-05-07T06:20:24;22.83;;;10.68;;
8857;SDS011;4465;50.904;4.696;2023-05-07T06:22:50;16.42;;;10.30;;
8857;SDS011;4465;50.904;4.696;2023-05-07T06:25:16;18.05;;;10.90;;
8857;SDS011;4465;50.904;4.696;2023-05-07T06:27:42;16.30;;;9.88;;
8857;SDS011;4465;50.904;4.696;2023-05-07T06:30:08;20.23;;;10.10;;
8857;SDS011;4465;50.904;4.696;2023-05-07T06:32:34;21.13;;;9.88;;
8857;SDS011;4465;50.904;4.696;2023-05-07T06:35:02;21.20;;;10.55;;
8857;SDS011;4465;50.904;4.696;2023-05-07T06:37:28;23.13;;;10.00;;
8857;SDS011;4465;50.904;4.696;2023-05-07T06:39:54;15.85;;;9.38;;
8857;SDS011;4465;50.904;4.696;2023-05-07T06:42:20;20.92;;;9.13;;
8857;SDS011;4465;50.904;4.696;2023-05-07T06:44:46;18.92;;;7.72;;
8857;SDS011;4465;50.904;4.696;2023-05-07T06:47:12;15.98;;;7.30;;
8857;SDS011;4465;50.904;4.696;2023-05-07T06:49:38;16.83;;;6.70;;
8857;SDS011;4465;50.904;4.696;2023-05-07T06:52:04;16.25;;;7.03;;
8857;SDS011;4465;50.904;4.696;2023-05-07T06:54:29;20.90;;;6.20;;
8857;SDS011;4465;50.904;4.696;2023-05-07T06:56:55;12.60;;;5.78;;
8857;SDS011;4465;50.904;4.696;2023-05-07T06:59:24;15.32;;;6.38;;
8857;SDS011;4465;50.904;4.696;2023-05-07T07:01:49;10.90;;;5.93;;
8857;SDS011;4465;50.904;4.696;2023-05-07T07:04:17;14.10;;;5.93;;
8857;SDS011;4465;50.904;4.696;2023-05-07T07:06:43;11.57;;;5.53;;
8857;SDS011;4465;50.904;4.696;2023-05-07T07:09:10;12.10;;;6.07;;
8857;SDS011;4465;50.904;4.696;2023-05-07T07:11:36;14.25;;;5.55;;
8857;SDS011;4465;50.904;4.696;2023-05-07T07:14:02;15.85;;;5.03;;
8857;SDS011;4465;50.904;4.696;2023-05-07T07:16:30;16.10;;;5.53;;
8857;SDS011;4465;50.904;4.696;2023-05-07T07:18:56;12.23;;;5.20;;
8857;SDS011;4465;50.904;4.696;2023-05-07T07:21:21;13.82;;;5.30;;
8857;SDS011;4465;50.904;4.696;2023-05-07T07:23:47;14.48;;;5.63;;
8857;SDS011;4465;50.904;4.696;2023-05-07T07:26:13;9.68;;;4.82;;
8857;SDS011;4465;50.904;4.696;2023-05-07T07:28:43;12.35;;;4.80;;
8857;SDS011;4465;50.904;4.696;2023-05-07T07:31:09;13.98;;;4.95;;
8857;SDS011;4465;50.904;4.696;2023-05-07T07:33:36;11.85;;;5.15;;
8857;SDS011;4465;50.904;4.696;2023-05-07T07:36:02;12.38;;;4.85;;
8857;SDS011;4465;50.904;4.696;2023-05-07T07:38:28;14.27;;;5.10;;
8857;SDS011;4465;50.904;4.696;2023-05-07T07:40:54;15.18;;;5.45;;
8857;SDS011;4465;50.904;4.696;2023-05-07T07:43:20;11.63;;;5.63;;
8857;SDS011;4465;50.904;4.696;2023-05-07T07:45:46;18.80;;;7.30;;
8857;SDS011;4465;50.904;4.696;2023-05-07T07:48:14;17.55;;;6.03;;
8857;SDS011;4465;50.904;4.696;2023-05-07T07:50:40;13.10;;;5.45;;
8857;SDS011;4465;50.904;4.696;2023-05-07T07:53:05;13.65;;;5.38;;
8857;SDS011;4465;50.904;4.696;2023-05-07T07:55:32;14.25;;;6.32;;
8857;SDS011;4465;50.904;4.696;2023-05-07T07:57:57;15.23;;;5.97;;
8857;SDS011;4465;50.904;4.696;2023-05-07T08:00:23;15.65;;;5.40;;
8857;SDS011;4465;50.904;4.696;2023-05-07T08:02:49;12.60;;;4.57;;
8857;SDS011;4465;50.904;4.696;2023-05-07T08:05:17;11.75;;;4.65;;
8857;SDS011;4465;50.904;4.696;2023-05-07T08:07:47;13.93;;;4.97;;
8857;SDS011;4465;50.904;4.696;2023-05-07T08:10:17;9.23;;;4.30;;
8857;SDS011;4465;50.904;4.696;2023-05-07T08:12:47;9.07;;;4.50;;
8857;SDS011;4465;50.904;4.696;2023-05-07T08:15:14;12.13;;;4.93;;
8857;SDS011;4465;50.904;4.696;2023-05-07T08:17:40;14.13;;;4.75;;
8857;SDS011;4465;50.904;4.696;2023-05-07T08:20:06;11.35;;;4.65;;
8857;SDS011;4465;50.904;4.696;2023-05-07T08:22:34;11.30;;;5.28;;
8857;SDS011;4465;50.904;4.696;2023-05-07T08:27:26;14.43;;;5.32;;
8857;SDS011;4465;50.904;4.696;2023-05-07T08:29:52;13.45;;;5.35;;
8857;SDS011;4465;50.904;4.696;2023-05-07T08:32:23;12.00;;;5.18;;
8857;SDS011;4465;50.904;4.696;2023-05-07T08:34:52;12.18;;;4.82;;
8857;SDS011;4465;50.904;4.696;2023-05-07T08:37:18;11.68;;;4.78;;
8857;SDS011;4465;50.904;4.696;2023-05-07T08:39:44;16.08;;;5.85;;
8857;SDS011;4465;50.904;4.696;2023-05-07T08:42:09;15.52;;;6.47;;
8857;SDS011;4465;50.904;4.696;2023-05-07T08:44:38;13.27;;;5.55;;
8857;SDS011;4465;50.904;4.696;2023-05-07T08:47:06;13.25;;;5.55;;
8857;SDS011;4465;50.904;4.696;2023-05-07T08:49:35;11.25;;;5.05;;
8857;SDS011;4465;50.904;4.696;2023-05-07T08:52:01;13.32;;;6.47;;
8857;SDS011;4465;50.904;4.696;2023-05-07T08:54:29;10.85;;;5.07;;
8857;SDS011;4465;50.904;4.696;2023-05-07T08:56:56;12.57;;;4.50;;
8857;SDS011;4465;50.904;4.696;2023-05-07T08:59:25;10.13;;;4.85;;
8857;SDS011;4465;50.904;4.696;2023-05-07T09:01:51;11.68;;;4.85;;
8857;SDS011;4465;50.904;4.696;2023-05-07T09:04:19;10.25;;;5.05;;
8857;SDS011;4465;50.904;4.696;2023-05-07T09:06:45;10.30;;;4.55;;
8857;SDS011;4465;50.904;4.696;2023-05-07T09:09:16;17.33;;;4.93;;
8857;SDS011;4465;50.904;4.696;2023-05-07T09:11:49;9.32;;;4.70;;
8857;SDS011;4465;50.904;4.696;2023-05-07T09:16:53;8.30;;;4.28;;
8857;SDS011;4465;50.904;4.696;2023-05-07T09:19:23;9.82;;;4.70;;
8857;SDS011;4465;50.904;4.696;2023-05-07T09:21:50;12.75;;;4.95;;
8857;SDS011;4465;50.904;4.696;2023-05-07T09:24:34;11.82;;;4.88;;
8857;SDS011;4465;50.904;4.696;2023-05-07T09:27:03;9.18;;;4.63;;
8857;SDS011;4465;50.904;4.696;2023-05-07T09:29:32;12.80;;;5.00;;
8857;SDS011;4465;50.904;4.696;2023-05-07T09:32:01;10.45;;;4.80;;
8857;SDS011;4465;50.904;4.696;2023-05-07T09:34:29;13.52;;;4.93;;
8857;SDS011;4465;50.904;4.696;2023-05-07T09:36:58;11.75;;;4.65;;
8857;SDS011;4465;50.904;4.696;2023-05-07T09:39:37;12.65;;;5.38;;
8857;SDS011;4465;50.904;4.696;2023-05-07T09:42:11;9.25;;;4.53;;
8857;SDS011;4465;50.904;4.696;2023-05-07T09:44:40;11.88;;;5.07;;
8857;SDS011;4465;50.904;4.696;2023-05-07T09:47:06;12.93;;;4.97;;
8857;SDS011;4465;50.904;4.696;2023-05-07T09:49:36;11.98;;;4.90;;
8857;SDS011;4465;50.904;4.696;2023-05-07T09:52:07;11.65;;;4.68;;
8857;SDS011;4465;50.904;4.696;2023-05-07T09:54:35;13.20;;;4.50;;
8857;SDS011;4465;50.904;4.696;2023-05-07T09:57:03;11.98;;;4.22;;
8857;SDS011;4465;50.904;4.696;2023-05-07T09:59:31;14.77;;;4.65;;
8857;SDS011;4465;50.904;4.696;2023-05-07T10:02:00;9.38;;;4.57;;
8857;SDS011;4465;50.904;4.696;2023-05-07T10:04:31;12.13;;;4.70;;
8857;SDS011;4465;50.904;4.696;2023-05-07T10:06:57;8.82;;;3.67;;
8857;SDS011;4465;50.904;4.696;2023-05-07T10:09:25;11.52;;;4.07;;
8857;SDS011;4465;50.904;4.696;2023-05-07T10:11:51;9.27;;;4.00;;
8857;SDS011;4465;50.904;4.696;2023-05-07T10:14:22;12.40;;;4.32;;
8857;SDS011;4465;50.904;4.696;2023-05-07T10:16:48;6.80;;;3.42;;
8857;SDS011;4465;50.904;4.696;2023-05-07T10:19:15;10.05;;;4.00;;
8857;SDS011;4465;50.904;4.696;2023-05-07T10:21:44;10.70;;;3.17;;
8857;SDS011;4465;50.904;4.696;2023-05-07T10:24:29;12.52;;;3.20;;
8857;SDS011;4465;50.904;4.696;2023-05-07T10:27:02;11.82;;;3.25;;
8857;SDS011;4465;50.904;4.696;2023-05-07T10:32:40;11.73;;;3.95;;
8857;SDS011;4465;50.904;4.696;2023-05-07T10:35:11;11.68;;;3.78;;
8857;SDS011;4465;50.904;4.696;2023-05-07T10:37:45;8.80;;;3.45;;
8857;SDS011;4465;50.904;4.696;2023-05-07T10:40:15;13.05;;;4.05;;
8857;SDS011;4465;50.904;4.696;2023-05-07T10:42:56;11.05;;;4.03;;
8857;SDS011;4465;50.904;4.696;2023-05-07T10:45:27;12.65;;;4.32;;
8857;SDS011;4465;50.904;4.696;2023-05-07T10:48:12;10.13;;;4.30;;
8857;SDS011;4465;50.904;4.696;2023-05-07T10:50:40;7.35;;;3.50;;
8857;SDS011;4465;50.904;4.696;2023-05-07T10:56:23;9.93;;;3.35;;
8857;SDS011;4465;50.904;4.696;2023-05-07T10:58:44;10.90;;;3.42;;
8857;SDS011;4465;50.904;4.696;2023-05-07T11:01:12;10.38;;;3.97;;
8857;SDS011;4465;50.904;4.696;2023-05-07T11:04:31;11.38;;;3.58;;
8857;SDS011;4465;50.904;4.696;2023-05-07T11:15:12;6.72;;;2.40;;
8857;SDS011;4465;50.904;4.696;2023-05-07T11:17:57;11.30;;;3.08;;
8857;SDS011;4465;50.904;4.696;2023-05-07T11:28:31;5.00;;;2.13;;
8857;SDS011;4465;50.904;4.696;2023-05-07T11:31:02;11.73;;;2.33;;
8857;SDS011;4465;50.904;4.696;2023-05-07T11:33:29;6.75;;;1.95;;
8857;SDS011;4465;50.904;4.696;2023-05-07T11:35:56;9.63;;;3.10;;
8857;SDS011;4465;50.904;4.696;2023-05-07T11:38:22;7.73;;;2.80;;
8857;SDS011;4465;50.904;4.696;2023-05-07T11:43:16;4.88;;;2.60;;
8857;SDS011;4465;50.904;4.696;2023-05-07T11:45:42;9.27;;;2.83;;
8857;SDS011;4465;50.904;4.696;2023-05-07T11:48:13;6.78;;;2.30;;
8857;SDS011;4465;50.904;4.696;2023-05-07T11:50:53;6.00;;;2.95;;
8857;SDS011;4465;50.904;4.696;2023-05-07T11:53:27;9.10;;;2.78;;
8857;SDS011;4465;50.904;4.696;2023-05-07T11:56:15;11.68;;;3.10;;
8857;SDS011;4465;50.904;4.696;2023-05-07T11:58:42;7.10;;;3.08;;
8857;SDS011;4465;50.904;4.696;2023-05-07T12:01:09;9.57;;;2.97;;
8857;SDS011;4465;50.904;4.696;2023-05-07T12:03:43;7.38;;;2.45;;
8857;SDS011;4465;50.904;4.696;2023-05-07T12:06:11;8.85;;;2.78;;
8857;SDS011;4465;50.904;4.696;2023-05-07T12:08:39;9.63;;;3.42;;
8857;SDS011;4465;50.904;4.696;2023-05-07T12:11:10;9.45;;;3.00;;
8857;SDS011;4465;50.904;4.696;2023-05-07T12:13:39;7.68;;;3.00;;
8857;SDS011;4465;50.904;4.696;2023-05-07T12:16:06;6.20;;;2.95;;
8857;SDS011;4465;50.904;4.696;2023-05-07T12:18:35;8.90;;;2.63;;
8857;SDS011;4465;50.904;4.696;2023-05-07T12:21:05;7.22;;;2.67;;
8857;SDS011;4465;50.904;4.696;2023-05-07T12:23:34;9.43;;;2.20;;
8857;SDS011;4465;50.904;4.696;2023-05-07T12:26:04;7.25;;;2.30;;
8857;SDS011;4465;50.904;4.696;2023-05-07T12:28:35;9.00;;;1.98;;
8857;SDS011;4465;50.904;4.696;2023-05-07T12:31:05;4.45;;;1.90;;
8857;SDS011;4465;50.904;4.696;2023-05-07T12:33:34;6.15;;;2.20;;
8857;SDS011;4465;50.904;4.696;2023-05-07T12:36:02;12.90;;;3.38;;
8857;SDS011;4465;50.904;4.696;2023-05-07T12:38:42;5.20;;;2.53;;
8857;SDS011;4465;50.904;4.696;2023-05-07T12:41:08;8.23;;;2.30;;
8857;SDS011;4465;50.904;4.696;2023-05-07T12:43:36;5.13;;;2.33;;
8857;SDS011;4465;50.904;4.696;2023-05-07T12:46:05;5.35;;;2.13;;
8857;SDS011;4465;50.904;4.696;2023-05-07T12:48:32;5.68;;;1.75;;
8857;SDS011;4465;50.904;4.696;2023-05-07T12:51:00;4.55;;;2.08;;
8857;SDS011;4465;50.904;4.696;2023-05-07T12:53:29;5.38;;;2.15;;
8857;SDS011;4465;50.904;4.696;2023-05-07T12:55:57;9.97;;;2.57;;
8857;SDS011;4465;50.904;4.696;2023-05-07T12:58:25;4.35;;;1.90;;
8857;SDS011;4465;50.904;4.696;2023-05-07T13:00:57;5.60;;;2.20;;
8857;SDS011;4465;50.904;4.696;2023-05-07T13:05:58;5.10;;;2.03;;
8857;SDS011;4465;50.904;4.696;2023-05-07T13:08:33;6.70;;;2.30;;
8857;SDS011;4465;50.904;4.696;2023-05-07T13:11:01;7.95;;;2.20;;
8857;SDS011;4465;50.904;4.696;2023-05-07T13:13:31;7.53;;;2.47;;
8857;SDS011;4465;50.904;4.696;2023-05-07T13:16:03;6.00;;;2.22;;
8857;SDS011;4465;50.904;4.696;2023-05-07T13:18:31;7.78;;;2.72;;
8857;SDS011;4465;50.904;4.696;2023-05-07T13:20:57;8.18;;;2.17;;
8857;SDS011;4465;50.904;4.696;2023-05-07T13:23:26;9.30;;;2.22;;
8857;SDS011;4465;50.904;4.696;2023-05-07T13:25:54;7.45;;;1.95;;
8857;SDS011;4465;50.904;4.696;2023-05-07T13:28:23;6.68;;;2.63;;
8857;SDS011;4465;50.904;4.696;2023-05-07T13:30:52;5.35;;;2.35;;
8857;SDS011;4465;50.904;4.696;2023-05-07T13:33:19;10.00;;;2.53;;
8857;SDS011;4465;50.904;4.696;2023-05-07T13:35:45;6.50;;;2.83;;
8857;SDS011;4465;50.904;4.696;2023-05-07T13:38:13;5.40;;;2.42;;
8857;SDS011;4465;50.904;4.696;2023-05-07T13:40:41;6.47;;;2.63;;
8857;SDS011;4465;50.904;4.696;2023-05-07T13:43:07;6.55;;;2.30;;
8857;SDS011;4465;50.904;4.696;2023-05-07T13:45:33;5.07;;;2.28;;
8857;SDS011;4465;50.904;4.696;2023-05-07T13:47:59;6.05;;;2.40;;
8857;SDS011;4465;50.904;4.696;2023-05-07T13:50:25;4.97;;;2.22;;
8857;SDS011;4465;50.904;4.696;2023-05-07T13:52:52;3.55;;;2.10;;
8857;SDS011;4465;50.904;4.696;2023-05-07T13:55:18;6.82;;;2.20;;
8857;SDS011;4465;50.904;4.696;2023-05-07T13:57:54;6.88;;;2.45;;
8857;SDS011;4465;50.904;4.696;2023-05-07T14:00:22;5.20;;;2.50;;
8857;SDS011;4465;50.904;4.696;2023-05-07T14:02:48;4.68;;;2.50;;
8857;SDS011;4465;50.904;4.696;2023-05-07T14:05:14;6.85;;;2.63;;
8857;SDS011;4465;50.904;4.696;2023-05-07T14:07:40;7.18;;;2.90;;
8857;SDS011;4465;50.904;4.696;2023-05-07T14:10:11;5.00;;;2.30;;
8857;SDS011;4465;50.904;4.696;2023-05-07T14:12:38;4.45;;;2.38;;
8857;SDS011;4465;50.904;4.696;2023-05-07T14:15:06;7.68;;;3.15;;
8857;SDS011;4465;50.904;4.696;2023-05-07T14:17:35;6.00;;;2.50;;
8857;SDS011;4465;50.904;4.696;2023-05-07T14:20:04;5.38;;;2.38;;
8857;SDS011;4465;50.904;4.696;2023-05-07T14:22:32;7.15;;;2.55;;
8857;SDS011;4465;50.904;4.696;2023-05-07T14:24:58;4.32;;;2.58;;
8857;SDS011;4465;50.904;4.696;2023-05-07T14:27:23;7.53;;;2.80;;
8857;SDS011;4465;50.904;4.696;2023-05-07T14:29:49;7.75;;;2.50;;
8857;SDS011;4465;50.904;4.696;2023-05-07T14:32:17;5.25;;;2.40;;
8857;SDS011;4465;50.904;4.696;2023-05-07T14:34:44;6.80;;;2.60;;
8857;SDS011;4465;50.904;4.696;2023-05-07T14:37:10;5.13;;;2.50;;
8857;SDS011;4465;50.904;4.696;2023-05-07T14:39:36;4.82;;;2.58;;
8857;SDS011;4465;50.904;4.696;2023-05-07T14:42:02;9.13;;;2.50;;
8857;SDS011;4465;50.904;4.696;2023-05-07T14:44:28;4.93;;;2.67;;
8857;SDS011;4465;50.904;4.696;2023-05-07T14:46:54;3.97;;;2.53;;
8857;SDS011;4465;50.904;4.696;2023-05-07T14:49:20;6.30;;;2.60;;
8857;SDS011;4465;50.904;4.696;2023-05-07T14:51:46;6.78;;;2.35;;
8857;SDS011;4465;50.904;4.696;2023-05-07T14:54:15;9.60;;;2.80;;
8857;SDS011;4465;50.904;4.696;2023-05-07T14:56:41;6.30;;;2.78;;
8857;SDS011;4465;50.904;4.696;2023-05-07T14:59:07;4.35;;;2.15;;
8857;SDS011;4465;50.904;4.696;2023-05-07T15:01:34;9.13;;;2.80;;
8857;SDS011;4465;50.904;4.696;2023-05-07T15:06:32;5.72;;;2.88;;
8857;SDS011;4465;50.904;4.696;2023-05-07T15:08:58;8.10;;;2.92;;
8857;SDS011;4465;50.904;4.696;2023-05-07T15:11:25;5.30;;;2.42;;
8857;SDS011;4465;50.904;4.696;2023-05-07T15:13:51;8.60;;;2.83;;
8857;SDS011;4465;50.904;4.696;2023-05-07T15:16:16;5.55;;;3.05;;
8857;SDS011;4465;50.904;4.696;2023-05-07T15:18:42;8.98;;;2.83;;
8857;SDS011;4465;50.904;4.696;2023-05-07T15:21:09;7.10;;;2.90;;
8857;SDS011;4465;50.904;4.696;2023-05-07T15:23:35;12.18;;;3.67;;
8857;SDS011;4465;50.904;4.696;2023-05-07T15:26:01;6.88;;;2.95;;
8857;SDS011;4465;50.904;4.696;2023-05-07T15:28:27;5.28;;;3.10;;
8857;SDS011;4465;50.904;4.696;2023-05-07T15:30:54;9.55;;;3.20;;
8857;SDS011;4465;50.904;4.696;2023-05-07T15:33:20;9.40;;;3.67;;
8857;SDS011;4465;50.904;4.696;2023-05-07T15:35:46;6.22;;;3.13;;
8857;SDS011;4465;50.904;4.696;2023-05-07T15:38:16;9.60;;;5.80;;
8857;SDS011;4465;50.904;4.696;2023-05-07T15:40:42;8.00;;;3.78;;
8857;SDS011;4465;50.904;4.696;2023-05-07T15:43:08;7.25;;;3.30;;
8857;SDS011;4465;50.904;4.696;2023-05-07T15:45:38;9.18;;;3.50;;
8857;SDS011;4465;50.904;4.696;2023-05-07T15:48:05;8.35;;;3.10;;
8857;SDS011;4465;50.904;4.696;2023-05-07T15:50:32;8.48;;;3.50;;
8857;SDS011;4465;50.904;4.696;2023-05-07T15:53:04;6.50;;;3.47;;